Palisades, New York
Current Conditions -  °F | °C
As of 9:56 PM on Saturday 20 Dec 2014 (Local Time) from KHPN Reporting Station
Overcast Overcast  
Wind Chill: 30°   Ceiling: 2300
Heat Index: 30°   Visibility: 10mi
Dew Point: 21°   Wind: 3mph
Humidity: 69%   Direction: 320°NW
Pressure: 30.27"   Gusts: NA
Location:  41.01°N, 73.91°W
Report Text: KHPN 210256Z 32003KT 10SM OVC023 M01/M06 A3027 RMK AO2 SLP259 T10111061 53002
Loading
Personal Weather Stations






























Interactive Weather Map New forecast layout! Learn more

10-Day Weather Forecast

Advertisements
Track Severe Weather on mobile